Pagrindinis puslapis
METAR-TAF:

METAR-TAF

Oro uostai :

Kristiansund, Norvegija

platuma: 63-07N, ilguma: 007-50E, Aukštis: 6 m

Dabartinis oras

Ataskaita buvo paskelbta 19 minutes, ne 10:50 UTC
Vėjas 5 kt iš Rytų, svyruoja nuo Rytų/Šiaurės Rytų ir Pietryčių
Temperatūra 14°C
Drėgmė 67%
Slėgis 1012 hPa
Matomumas 10 km arba daugiau
Mažai debesys ne aukštis 3200 ft
Su prošvaistėmis ne aukštis 6800 ft
lietus

METAR: ENKB 221050Z 09005KT 060V130 9999 -RA FEW032 BKN068 14/08 Q1012 RMK WIND 745FT 13009KT

Laikas: 13:09 (11:09 UTC)

Prognozė

Ataskaita buvo paskelbta 3 valandos ir 9 minutes, ne 08:00 UTC
Prognozė galioja nuo 22 metu 09 UTC su 22 metu 18 UTC
Vėjas 7 kt iš Rytų
Matomumas 10 km arba daugiau
Su prošvaistėmis ne aukštis 6000 ft
Tapsmas
nuo 22 metu 16 UTC su 22 metu 18 UTC
Vėjas 10 kt iš Vakarų

TAF: ENKB 220800Z 2209/2218 10007KT 9999 BKN060 BECMG 2216/2218 26010KT

Orai ataskaitas ir orų prognozės (METAR, TAF).

turimą stotys yra geltonos ir raudonos taškus žemėlapyje.

Perkelti pele per norėdami pamatyti stoties vardą.

Tada spustelėkite, norėdami matyti oro stebėjimo ir prognozės.

Norėdami pakeisti žemėlapį: spustelėkite ant žalios mygtukų su juodo kryžiaus žemyn,; žalią mygtuką su brūkšneliu, jei norite nutolinti; arba žalių rodyklių gretimoms žemėlapius.


METAR-TAF: